sensor_id;sensor_type;location;lat;lon;timestamp;P1;durP1;ratioP1;P2;durP2;ratioP2
51566;SDS011;37657;53.182;5.638;2023-04-01T00:01:58;7.07;;;5.55;;
51566;SDS011;37657;53.182;5.638;2023-04-01T00:04:23;6.88;;;6.18;;
51566;SDS011;37657;53.182;5.638;2023-04-01T00:06:49;9.05;;;6.82;;
51566;SDS011;37657;53.182;5.638;2023-04-01T00:09:14;7.38;;;6.60;;
51566;SDS011;37657;53.182;5.638;2023-04-01T00:11:40;9.20;;;8.15;;
51566;SDS011;37657;53.182;5.638;2023-04-01T00:14:06;7.72;;;6.53;;
51566;SDS011;37657;53.182;5.638;2023-04-01T00:16:32;6.50;;;5.90;;
51566;SDS011;37657;53.182;5.638;2023-04-01T00:18:58;6.97;;;6.28;;
51566;SDS011;37657;53.182;5.638;2023-04-01T00:21:25;7.50;;;6.47;;
51566;SDS011;37657;53.182;5.638;2023-04-01T00:23:51;10.32;;;7.47;;
51566;SDS011;37657;53.182;5.638;2023-04-01T00:26:17;7.88;;;6.93;;
51566;SDS011;37657;53.182;5.638;2023-04-01T00:28:45;9.40;;;7.38;;
51566;SDS011;37657;53.182;5.638;2023-04-01T00:31:11;8.98;;;6.82;;
51566;SDS011;37657;53.182;5.638;2023-04-01T00:33:37;8.18;;;7.38;;
51566;SDS011;37657;53.182;5.638;2023-04-01T00:36:09;8.55;;;7.15;;
51566;SDS011;37657;53.182;5.638;2023-04-01T00:41:04;11.20;;;8.52;;
51566;SDS011;37657;53.182;5.638;2023-04-01T00:43:30;8.90;;;7.93;;
51566;SDS011;37657;53.182;5.638;2023-04-01T00:45:56;11.10;;;9.32;;
51566;SDS011;37657;53.182;5.638;2023-04-01T00:48:23;9.80;;;8.88;;
51566;SDS011;37657;53.182;5.638;2023-04-01T00:50:54;11.38;;;7.63;;
51566;SDS011;37657;53.182;5.638;2023-04-01T00:53:27;12.77;;;9.77;;
51566;SDS011;37657;53.182;5.638;2023-04-01T00:56:04;9.85;;;8.20;;
51566;SDS011;37657;53.182;5.638;2023-04-01T00:58:35;7.97;;;6.85;;
51566;SDS011;37657;53.182;5.638;2023-04-01T01:01:06;9.68;;;8.45;;
51566;SDS011;37657;53.182;5.638;2023-04-01T01:03:34;9.57;;;8.57;;
51566;SDS011;37657;53.182;5.638;2023-04-01T01:08:52;11.30;;;9.38;;
51566;SDS011;37657;53.182;5.638;2023-04-01T01:11:27;9.30;;;8.40;;
51566;SDS011;37657;53.182;5.638;2023-04-01T01:14:11;9.15;;;8.13;;
51566;SDS011;37657;53.182;5.638;2023-04-01T01:16:43;10.25;;;9.13;;
51566;SDS011;37657;53.182;5.638;2023-04-01T01:19:22;9.02;;;7.90;;
51566;SDS011;37657;53.182;5.638;2023-04-01T01:30:57;9.63;;;8.40;;
51566;SDS011;37657;53.182;5.638;2023-04-01T01:36:43;9.60;;;7.78;;
51566;SDS011;37657;53.182;5.638;2023-04-01T01:39:13;12.55;;;8.00;;
51566;SDS011;37657;53.182;5.638;2023-04-01T01:41:39;21.33;;;8.45;;
51566;SDS011;37657;53.182;5.638;2023-04-01T01:44:08;11.63;;;10.10;;
51566;SDS011;37657;53.182;5.638;2023-04-01T01:46:36;11.10;;;8.88;;
51566;SDS011;37657;53.182;5.638;2023-04-01T01:49:04;13.55;;;10.52;;
51566;SDS011;37657;53.182;5.638;2023-04-01T01:51:31;11.88;;;9.50;;
51566;SDS011;37657;53.182;5.638;2023-04-01T01:53:56;14.32;;;8.27;;
51566;SDS011;37657;53.182;5.638;2023-04-01T01:56:23;11.15;;;8.32;;
51566;SDS011;37657;53.182;5.638;2023-04-01T01:58:52;16.52;;;8.95;;
51566;SDS011;37657;53.182;5.638;2023-04-01T02:01:24;12.25;;;10.57;;
51566;SDS011;37657;53.182;5.638;2023-04-01T02:03:51;11.85;;;8.55;;
51566;SDS011;37657;53.182;5.638;2023-04-01T02:06:19;11.48;;;10.35;;
51566;SDS011;37657;53.182;5.638;2023-04-01T02:08:49;10.80;;;9.70;;
51566;SDS011;37657;53.182;5.638;2023-04-01T02:11:30;12.45;;;10.07;;
51566;SDS011;37657;53.182;5.638;2023-04-01T02:14:11;10.38;;;9.25;;
51566;SDS011;37657;53.182;5.638;2023-04-01T02:19:06;10.35;;;9.18;;
51566;SDS011;37657;53.182;5.638;2023-04-01T02:21:33;10.68;;;9.57;;
51566;SDS011;37657;53.182;5.638;2023-04-01T02:24:00;10.90;;;9.77;;
51566;SDS011;37657;53.182;5.638;2023-04-01T02:26:29;9.55;;;8.30;;
51566;SDS011;37657;53.182;5.638;2023-04-01T02:28:55;11.18;;;10.05;;
51566;SDS011;37657;53.182;5.638;2023-04-01T02:31:22;13.32;;;11.00;;
51566;SDS011;37657;53.182;5.638;2023-04-01T02:33:48;9.88;;;8.88;;
51566;SDS011;37657;53.182;5.638;2023-04-01T02:36:15;11.90;;;10.30;;
51566;SDS011;37657;53.182;5.638;2023-04-01T02:38:42;10.57;;;9.55;;
51566;SDS011;37657;53.182;5.638;2023-04-01T02:41:10;10.50;;;8.50;;
51566;SDS011;37657;53.182;5.638;2023-04-01T02:43:36;12.70;;;10.32;;
51566;SDS011;37657;53.182;5.638;2023-04-01T02:46:01;12.40;;;11.10;;
51566;SDS011;37657;53.182;5.638;2023-04-01T02:48:27;16.33;;;11.18;;
51566;SDS011;37657;53.182;5.638;2023-04-01T02:50:54;12.00;;;10.40;;
51566;SDS011;37657;53.182;5.638;2023-04-01T02:53:19;12.95;;;10.93;;
51566;SDS011;37657;53.182;5.638;2023-04-01T02:55:45;12.63;;;11.38;;
51566;SDS011;37657;53.182;5.638;2023-04-01T02:58:11;15.98;;;12.55;;
51566;SDS011;37657;53.182;5.638;2023-04-01T03:00:37;16.23;;;12.43;;
51566;SDS011;37657;53.182;5.638;2023-04-01T03:03:03;13.93;;;12.32;;
51566;SDS011;37657;53.182;5.638;2023-04-01T03:05:29;14.75;;;12.20;;
51566;SDS011;37657;53.182;5.638;2023-04-01T03:07:55;17.92;;;13.45;;
51566;SDS011;37657;53.182;5.638;2023-04-01T03:10:20;13.82;;;11.70;;
51566;SDS011;37657;53.182;5.638;2023-04-01T03:12:46;12.05;;;10.93;;
51566;SDS011;37657;53.182;5.638;2023-04-01T03:15:12;15.48;;;13.10;;
51566;SDS011;37657;53.182;5.638;2023-04-01T03:17:39;17.33;;;14.52;;
51566;SDS011;37657;53.182;5.638;2023-04-01T03:20:06;14.27;;;12.93;;
51566;SDS011;37657;53.182;5.638;2023-04-01T03:22:34;14.52;;;12.93;;
51566;SDS011;37657;53.182;5.638;2023-04-01T03:25:00;15.23;;;12.00;;
51566;SDS011;37657;53.182;5.638;2023-04-01T03:27:26;12.55;;;10.48;;
51566;SDS011;37657;53.182;5.638;2023-04-01T03:29:52;12.65;;;11.38;;
51566;SDS011;37657;53.182;5.638;2023-04-01T03:32:17;12.98;;;11.70;;
51566;SDS011;37657;53.182;5.638;2023-04-01T03:34:43;13.13;;;10.75;;
51566;SDS011;37657;53.182;5.638;2023-04-01T03:37:08;11.38;;;10.05;;
51566;SDS011;37657;53.182;5.638;2023-04-01T03:39:34;10.43;;;9.45;;
51566;SDS011;37657;53.182;5.638;2023-04-01T03:42:00;14.52;;;10.63;;
51566;SDS011;37657;53.182;5.638;2023-04-01T03:44:25;14.43;;;12.70;;
51566;SDS011;37657;53.182;5.638;2023-04-01T03:46:55;16.08;;;12.43;;
51566;SDS011;37657;53.182;5.638;2023-04-01T03:49:20;13.73;;;12.02;;
51566;SDS011;37657;53.182;5.638;2023-04-01T03:51:46;12.23;;;10.98;;
51566;SDS011;37657;53.182;5.638;2023-04-01T03:54:11;15.75;;;11.50;;
51566;SDS011;37657;53.182;5.638;2023-04-01T03:56:37;13.90;;;12.40;;
51566;SDS011;37657;53.182;5.638;2023-04-01T03:59:04;12.63;;;10.43;;
51566;SDS011;37657;53.182;5.638;2023-04-01T04:01:30;17.50;;;13.88;;
51566;SDS011;37657;53.182;5.638;2023-04-01T04:03:56;13.10;;;11.73;;
51566;SDS011;37657;53.182;5.638;2023-04-01T04:06:22;16.58;;;14.02;;
51566;SDS011;37657;53.182;5.638;2023-04-01T04:08:48;14.95;;;12.30;;
51566;SDS011;37657;53.182;5.638;2023-04-01T04:11:14;16.75;;;11.60;;
51566;SDS011;37657;53.182;5.638;2023-04-01T04:13:41;12.88;;;11.32;;
51566;SDS011;37657;53.182;5.638;2023-04-01T04:16:07;13.23;;;10.93;;
51566;SDS011;37657;53.182;5.638;2023-04-01T04:18:34;11.85;;;10.40;;
51566;SDS011;37657;53.182;5.638;2023-04-01T04:21:00;12.48;;;10.95;;
51566;SDS011;37657;53.182;5.638;2023-04-01T04:23:26;9.93;;;8.18;;
51566;SDS011;37657;53.182;5.638;2023-04-01T04:25:55;11.13;;;8.95;;
51566;SDS011;37657;53.182;5.638;2023-04-01T04:28:26;13.52;;;9.93;;
51566;SDS011;37657;53.182;5.638;2023-04-01T04:30:53;12.48;;;11.23;;
51566;SDS011;37657;53.182;5.638;2023-04-01T04:33:19;13.93;;;12.45;;
51566;SDS011;37657;53.182;5.638;2023-04-01T04:35:45;15.05;;;13.48;;
51566;SDS011;37657;53.182;5.638;2023-04-01T04:38:11;12.50;;;10.70;;
51566;SDS011;37657;53.182;5.638;2023-04-01T04:40:37;17.05;;;12.63;;
51566;SDS011;37657;53.182;5.638;2023-04-01T04:43:03;17.08;;;12.02;;
51566;SDS011;37657;53.182;5.638;2023-04-01T04:45:29;16.98;;;12.63;;
51566;SDS011;37657;53.182;5.638;2023-04-01T04:47:55;15.90;;;14.35;;
51566;SDS011;37657;53.182;5.638;2023-04-01T04:50:21;19.00;;;17.10;;
51566;SDS011;37657;53.182;5.638;2023-04-01T04:52:47;23.13;;;16.15;;
51566;SDS011;37657;53.182;5.638;2023-04-01T04:55:13;18.73;;;16.63;;
51566;SDS011;37657;53.182;5.638;2023-04-01T04:57:39;18.38;;;15.63;;
51566;SDS011;37657;53.182;5.638;2023-04-01T05:00:05;18.23;;;16.45;;
51566;SDS011;37657;53.182;5.638;2023-04-01T05:02:32;18.30;;;14.73;;
51566;SDS011;37657;53.182;5.638;2023-04-01T05:04:58;18.58;;;14.93;;
51566;SDS011;37657;53.182;5.638;2023-04-01T05:07:23;20.65;;;15.05;;
51566;SDS011;37657;53.182;5.638;2023-04-01T05:09:49;19.55;;;13.73;;
51566;SDS011;37657;53.182;5.638;2023-04-01T05:12:14;22.10;;;14.20;;
51566;SDS011;37657;53.182;5.638;2023-04-01T05:14:40;16.00;;;14.32;;
51566;SDS011;37657;53.182;5.638;2023-04-01T05:17:09;17.98;;;15.88;;
51566;SDS011;37657;53.182;5.638;2023-04-01T05:19:35;17.48;;;15.35;;
51566;SDS011;37657;53.182;5.638;2023-04-01T05:22:01;25.17;;;17.08;;
51566;SDS011;37657;53.182;5.638;2023-04-01T05:24:27;20.55;;;17.33;;
51566;SDS011;37657;53.182;5.638;2023-04-01T05:26:52;18.45;;;16.58;;
51566;SDS011;37657;53.182;5.638;2023-04-01T05:29:18;21.25;;;17.65;;
51566;SDS011;37657;53.182;5.638;2023-04-01T05:31:43;18.02;;;16.38;;
51566;SDS011;37657;53.182;5.638;2023-04-01T05:34:09;22.60;;;16.83;;
51566;SDS011;37657;53.182;5.638;2023-04-01T05:36:35;16.77;;;15.18;;
51566;SDS011;37657;53.182;5.638;2023-04-01T05:39:01;16.00;;;14.40;;
51566;SDS011;37657;53.182;5.638;2023-04-01T05:41:27;21.65;;;16.60;;
51566;SDS011;37657;53.182;5.638;2023-04-01T05:43:53;19.10;;;15.15;;
51566;SDS011;37657;53.182;5.638;2023-04-01T05:46:18;19.65;;;16.55;;
51566;SDS011;37657;53.182;5.638;2023-04-01T05:48:44;22.90;;;17.42;;
51566;SDS011;37657;53.182;5.638;2023-04-01T05:51:13;24.77;;;19.85;;
51566;SDS011;37657;53.182;5.638;2023-04-01T05:53:39;24.40;;;17.13;;
51566;SDS011;37657;53.182;5.638;2023-04-01T05:56:05;19.38;;;17.10;;
51566;SDS011;37657;53.182;5.638;2023-04-01T05:58:33;19.77;;;17.15;;
51566;SDS011;37657;53.182;5.638;2023-04-01T06:01:02;23.55;;;18.48;;
51566;SDS011;37657;53.182;5.638;2023-04-01T06:03:35;18.80;;;16.58;;
51566;SDS011;37657;53.182;5.638;2023-04-01T06:06:01;18.95;;;16.48;;
51566;SDS011;37657;53.182;5.638;2023-04-01T06:08:27;21.92;;;18.65;;
51566;SDS011;37657;53.182;5.638;2023-04-01T06:11:15;22.33;;;18.83;;
51566;SDS011;37657;53.182;5.638;2023-04-01T06:28:14;30.02;;;19.50;;
51566;SDS011;37657;53.182;5.638;2023-04-01T06:31:03;23.77;;;17.75;;
51566;SDS011;37657;53.182;5.638;2023-04-01T06:33:48;21.73;;;19.45;;
51566;SDS011;37657;53.182;5.638;2023-04-01T06:44:33;25.13;;;17.30;;
51566;SDS011;37657;53.182;5.638;2023-04-01T06:49:55;21.33;;;16.08;;
51566;SDS011;37657;53.182;5.638;2023-04-01T06:52:25;20.75;;;15.88;;
51566;SDS011;37657;53.182;5.638;2023-04-01T06:54:58;20.77;;;16.60;;
51566;SDS011;37657;53.182;5.638;2023-04-01T06:57:55;18.70;;;13.98;;
51566;SDS011;37657;53.182;5.638;2023-04-01T07:00:27;16.63;;;14.95;;
51566;SDS011;37657;53.182;5.638;2023-04-01T07:05:34;23.33;;;16.20;;
51566;SDS011;37657;53.182;5.638;2023-04-01T07:08:08;24.08;;;18.88;;
51566;SDS011;37657;53.182;5.638;2023-04-01T07:10:43;20.85;;;17.90;;
51566;SDS011;37657;53.182;5.638;2023-04-01T07:13:55;20.40;;;17.50;;
51566;SDS011;37657;53.182;5.638;2023-04-01T07:16:32;23.13;;;19.88;;
51566;SDS011;37657;53.182;5.638;2023-04-01T07:21:40;29.50;;;20.95;;
51566;SDS011;37657;53.182;5.638;2023-04-01T07:24:22;25.05;;;20.67;;
51566;SDS011;37657;53.182;5.638;2023-04-01T07:26:54;24.88;;;19.83;;
51566;SDS011;37657;53.182;5.638;2023-04-01T07:29:21;23.65;;;20.52;;
51566;SDS011;37657;53.182;5.638;2023-04-01T07:40:47;31.80;;;23.90;;
51566;SDS011;37657;53.182;5.638;2023-04-01T07:46:03;41.78;;;26.73;;
51566;SDS011;37657;53.182;5.638;2023-04-01T07:51:13;31.55;;;24.05;;
51566;SDS011;37657;53.182;5.638;2023-04-01T07:56:23;31.63;;;19.48;;
51566;SDS011;37657;53.182;5.638;2023-04-01T08:02:14;25.92;;;20.33;;
51566;SDS011;37657;53.182;5.638;2023-04-01T08:07:51;28.13;;;21.02;;
51566;SDS011;37657;53.182;5.638;2023-04-01T08:10:41;25.65;;;21.73;;
51566;SDS011;37657;53.182;5.638;2023-04-01T08:16:25;28.95;;;21.27;;
51566;SDS011;37657;53.182;5.638;2023-04-01T08:22:09;20.45;;;18.27;;
51566;SDS011;37657;53.182;5.638;2023-04-01T08:24:44;26.20;;;20.38;;
51566;SDS011;37657;53.182;5.638;2023-04-01T08:27:14;24.13;;;17.42;;
51566;SDS011;37657;53.182;5.638;2023-04-01T08:30:01;14.60;;;13.20;;
51566;SDS011;37657;53.182;5.638;2023-04-01T08:32:55;16.23;;;10.70;;
51566;SDS011;37657;53.182;5.638;2023-04-01T08:37:56;11.18;;;10.02;;
51566;SDS011;37657;53.182;5.638;2023-04-01T08:40:35;13.23;;;9.27;;
51566;SDS011;37657;53.182;5.638;2023-04-01T08:48:44;8.52;;;6.20;;
51566;SDS011;37657;53.182;5.638;2023-04-01T09:00:21;6.93;;;4.07;;
51566;SDS011;37657;53.182;5.638;2023-04-01T09:03:08;8.43;;;5.15;;
51566;SDS011;37657;53.182;5.638;2023-04-01T09:14:34;8.32;;;4.35;;
51566;SDS011;37657;53.182;5.638;2023-04-01T09:19:59;13.95;;;4.40;;
51566;SDS011;37657;53.182;5.638;2023-04-01T09:28:10;8.50;;;6.43;;
51566;SDS011;37657;53.182;5.638;2023-04-01T09:30:51;9.88;;;6.55;;
51566;SDS011;37657;53.182;5.638;2023-04-01T09:36:45;7.05;;;5.28;;
51566;SDS011;37657;53.182;5.638;2023-04-01T09:39:37;13.95;;;5.82;;
51566;SDS011;37657;53.182;5.638;2023-04-01T09:45:07;10.10;;;5.93;;
51566;SDS011;37657;53.182;5.638;2023-04-01T09:55:44;4.85;;;3.00;;
51566;SDS011;37657;53.182;5.638;2023-04-01T09:58:45;6.28;;;3.05;;
51566;SDS011;37657;53.182;5.638;2023-04-01T10:01:34;5.97;;;3.33;;
51566;SDS011;37657;53.182;5.638;2023-04-01T10:04:29;5.22;;;3.85;;
51566;SDS011;37657;53.182;5.638;2023-04-01T10:10:42;6.20;;;3.72;;
51566;SDS011;37657;53.182;5.638;2023-04-01T10:13:30;17.58;;;5.82;;
51566;SDS011;37657;53.182;5.638;2023-04-01T10:27:06;7.60;;;4.22;;
51566;SDS011;37657;53.182;5.638;2023-04-01T10:29:55;5.70;;;3.75;;
51566;SDS011;37657;53.182;5.638;2023-04-01T10:32:49;9.07;;;4.60;;
51566;SDS011;37657;53.182;5.638;2023-04-01T10:41:30;6.68;;;4.38;;
51566;SDS011;37657;53.182;5.638;2023-04-01T10:44:36;10.98;;;5.63;;
51566;SDS011;37657;53.182;5.638;2023-04-01T10:55:53;8.48;;;5.97;;
51566;SDS011;37657;53.182;5.638;2023-04-01T11:13:06;8.23;;;4.10;;
51566;SDS011;37657;53.182;5.638;2023-04-01T11:18:49;6.78;;;2.97;;
51566;SDS011;37657;53.182;5.638;2023-04-01T11:21:38;5.93;;;3.67;;
51566;SDS011;37657;53.182;5.638;2023-04-01T11:27:05;5.35;;;3.30;;
51566;SDS011;37657;53.182;5.638;2023-04-01T11:38:15;4.70;;;3.28;;
51566;SDS011;37657;53.182;5.638;2023-04-01T11:46:50;10.50;;;4.28;;
51566;SDS011;37657;53.182;5.638;2023-04-01T11:55:02;5.05;;;3.58;;
51566;SDS011;37657;53.182;5.638;2023-04-01T12:03:23;5.63;;;3.53;;
51566;SDS011;37657;53.182;5.638;2023-04-01T12:06:16;4.78;;;3.20;;
51566;SDS011;37657;53.182;5.638;2023-04-01T12:09:01;5.63;;;3.10;;
51566;SDS011;37657;53.182;5.638;2023-04-01T12:11:51;7.07;;;3.28;;
51566;SDS011;37657;53.182;5.638;2023-04-01T12:23:15;6.72;;;3.28;;
51566;SDS011;37657;53.182;5.638;2023-04-01T12:26:10;5.43;;;3.50;;
51566;SDS011;37657;53.182;5.638;2023-04-01T12:34:55;8.93;;;4.82;;
51566;SDS011;37657;53.182;5.638;2023-04-01T12:40:20;3.83;;;2.90;;
51566;SDS011;37657;53.182;5.638;2023-04-01T12:43:00;7.50;;;3.80;;
51566;SDS011;37657;53.182;5.638;2023-04-01T12:46:05;7.03;;;3.75;;
51566;SDS011;37657;53.182;5.638;2023-04-01T12:49:12;7.15;;;3.63;;
51566;SDS011;37657;53.182;5.638;2023-04-01T13:00:40;3.97;;;2.42;;
51566;SDS011;37657;53.182;5.638;2023-04-01T13:08:32;6.38;;;3.20;;
51566;SDS011;37657;53.182;5.638;2023-04-01T13:16:31;4.53;;;2.13;;
51566;SDS011;37657;53.182;5.638;2023-04-01T13:27:18;4.88;;;3.35;;
51566;SDS011;37657;53.182;5.638;2023-04-01T13:29:59;17.77;;;4.78;;
51566;SDS011;37657;53.182;5.638;2023-04-01T13:33:04;5.78;;;2.90;;
51566;SDS011;37657;53.182;5.638;2023-04-01T13:38:32;7.53;;;3.00;;
51566;SDS011;37657;53.182;5.638;2023-04-01T13:44:11;6.93;;;3.28;;
51566;SDS011;37657;53.182;5.638;2023-04-01T13:47:30;4.65;;;2.95;;
51566;SDS011;37657;53.182;5.638;2023-04-01T13:53:09;6.10;;;4.28;;
51566;SDS011;37657;53.182;5.638;2023-04-01T13:58:35;4.85;;;3.83;;
51566;SDS011;37657;53.182;5.638;2023-04-01T14:01:32;5.35;;;2.50;;
51566;SDS011;37657;53.182;5.638;2023-04-01T14:28:49;4.55;;;2.58;;
51566;SDS011;37657;53.182;5.638;2023-04-01T14:39:56;3.65;;;2.72;;
51566;SDS011;37657;53.182;5.638;2023-04-01T14:42:35;4.50;;;2.78;;
51566;SDS011;37657;53.182;5.638;2023-04-01T14:45:34;7.53;;;3.92;;
51566;SDS011;37657;53.182;5.638;2023-04-01T14:48:21;5.75;;;4.40;;
51566;SDS011;37657;53.182;5.638;2023-04-01T14:51:01;4.53;;;3.55;;
51566;SDS011;37657;53.182;5.638;2023-04-01T14:53:56;5.28;;;2.88;;
51566;SDS011;37657;53.182;5.638;2023-04-01T14:56:37;4.75;;;4.10;;
51566;SDS011;37657;53.182;5.638;2023-04-01T15:02:07;4.93;;;3.38;;
51566;SDS011;37657;53.182;5.638;2023-04-01T15:07:50;8.43;;;4.43;;
51566;SDS011;37657;53.182;5.638;2023-04-01T15:10:49;9.13;;;4.22;;
51566;SDS011;37657;53.182;5.638;2023-04-01T15:16:05;10.98;;;3.97;;
51566;SDS011;37657;53.182;5.638;2023-04-01T15:18:49;6.07;;;4.28;;
51566;SDS011;37657;53.182;5.638;2023-04-01T15:24:21;6.95;;;4.40;;
51566;SDS011;37657;53.182;5.638;2023-04-01T15:27:20;9.50;;;4.60;;
51566;SDS011;37657;53.182;5.638;2023-04-01T15:33:07;7.78;;;4.72;;
51566;SDS011;37657;53.182;5.638;2023-04-01T15:36:08;11.38;;;5.60;;
51566;SDS011;37657;53.182;5.638;2023-04-01T15:38:59;19.30;;;5.68;;
51566;SDS011;37657;53.182;5.638;2023-04-01T15:44:46;8.07;;;5.30;;
51566;SDS011;37657;53.182;5.638;2023-04-01T15:55:20;10.70;;;5.75;;
51566;SDS011;37657;53.182;5.638;2023-04-01T15:58:18;8.70;;;5.78;;
51566;SDS011;37657;53.182;5.638;2023-04-01T16:01:19;14.48;;;6.13;;
51566;SDS011;37657;53.182;5.638;2023-04-01T16:07:02;9.45;;;6.53;;
51566;SDS011;37657;53.182;5.638;2023-04-01T16:22:53;9.20;;;5.57;;
51566;SDS011;37657;53.182;5.638;2023-04-01T16:25:36;8.50;;;6.35;;
51566;SDS011;37657;53.182;5.638;2023-04-01T16:31:13;12.60;;;6.63;;
51566;SDS011;37657;53.182;5.638;2023-04-01T16:34:08;11.07;;;6.80;;
51566;SDS011;37657;53.182;5.638;2023-04-01T16:39:36;14.35;;;7.20;;
51566;SDS011;37657;53.182;5.638;2023-04-01T16:44:59;15.30;;;8.23;;
51566;SDS011;37657;53.182;5.638;2023-04-01T16:47:40;13.00;;;6.68;;
51566;SDS011;37657;53.182;5.638;2023-04-01T16:50:22;8.90;;;5.93;;
51566;SDS011;37657;53.182;5.638;2023-04-01T16:53:08;10.63;;;6.07;;
51566;SDS011;37657;53.182;5.638;2023-04-01T16:55:58;11.23;;;6.70;;
51566;SDS011;37657;53.182;5.638;2023-04-01T16:58:39;9.10;;;6.50;;
51566;SDS011;37657;53.182;5.638;2023-04-01T17:01:12;13.27;;;7.68;;
51566;SDS011;37657;53.182;5.638;2023-04-01T17:03:44;12.57;;;8.48;;
51566;SDS011;37657;53.182;5.638;2023-04-01T17:06:24;27.67;;;7.18;;
51566;SDS011;37657;53.182;5.638;2023-04-01T17:11:56;8.65;;;7.72;;
51566;SDS011;37657;53.182;5.638;2023-04-01T17:17:09;7.82;;;6.93;;
51566;SDS011;37657;53.182;5.638;2023-04-01T17:22:17;19.80;;;8.27;;
51566;SDS011;37657;53.182;5.638;2023-04-01T17:24:51;18.35;;;8.23;;
51566;SDS011;37657;53.182;5.638;2023-04-01T17:30:12;14.55;;;10.85;;
51566;SDS011;37657;53.182;5.638;2023-04-01T17:38:39;11.30;;;8.25;;
51566;SDS011;37657;53.182;5.638;2023-04-01T17:47:02;18.90;;;8.95;;
51566;SDS011;37657;53.182;5.638;2023-04-01T17:49:59;7.68;;;6.65;;
51566;SDS011;37657;53.182;5.638;2023-04-01T17:58:08;12.27;;;7.53;;
51566;SDS011;37657;53.182;5.638;2023-04-01T18:03:24;8.82;;;5.90;;
51566;SDS011;37657;53.182;5.638;2023-04-01T18:15:12;6.60;;;5.50;;
51566;SDS011;37657;53.182;5.638;2023-04-01T18:17:52;10.88;;;6.18;;
51566;SDS011;37657;53.182;5.638;2023-04-01T18:23:30;11.57;;;7.53;;
51566;SDS011;37657;53.182;5.638;2023-04-01T18:26:04;10.35;;;7.07;;
51566;SDS011;37657;53.182;5.638;2023-04-01T18:28:44;10.23;;;9.02;;
51566;SDS011;37657;53.182;5.638;2023-04-01T18:31:24;7.90;;;6.53;;
51566;SDS011;37657;53.182;5.638;2023-04-01T18:33:59;8.98;;;7.25;;
51566;SDS011;37657;53.182;5.638;2023-04-01T18:36:37;10.50;;;7.35;;
51566;SDS011;37657;53.182;5.638;2023-04-01T18:50:19;21.13;;;9.10;;
51566;SDS011;37657;53.182;5.638;2023-04-01T18:53:25;15.88;;;9.07;;
51566;SDS011;37657;53.182;5.638;2023-04-01T18:55:54;11.85;;;7.32;;
51566;SDS011;37657;53.182;5.638;2023-04-01T18:58:27;17.20;;;8.98;;
51566;SDS011;37657;53.182;5.638;2023-04-01T19:06:50;13.93;;;7.70;;
51566;SDS011;37657;53.182;5.638;2023-04-01T19:09:42;13.27;;;6.78;;
51566;SDS011;37657;53.182;5.638;2023-04-01T19:14:52;8.18;;;5.90;;
51566;SDS011;37657;53.182;5.638;2023-04-01T19:25:37;9.45;;;6.50;;
51566;SDS011;37657;53.182;5.638;2023-04-01T19:28:20;8.70;;;7.05;;
51566;SDS011;37657;53.182;5.638;2023-04-01T19:39:39;11.68;;;9.50;;
51566;SDS011;37657;53.182;5.638;2023-04-01T19:47:57;8.85;;;5.93;;
51566;SDS011;37657;53.182;5.638;2023-04-01T19:50:34;11.27;;;7.95;;
51566;SDS011;37657;53.182;5.638;2023-04-01T20:04:38;10.30;;;7.18;;
51566;SDS011;37657;53.182;5.638;2023-04-01T20:07:09;11.75;;;7.45;;
51566;SDS011;37657;53.182;5.638;2023-04-01T20:14:50;10.60;;;7.78;;
51566;SDS011;37657;53.182;5.638;2023-04-01T20:17:20;12.52;;;6.63;;
51566;SDS011;37657;53.182;5.638;2023-04-01T20:24:58;13.07;;;7.28;;
51566;SDS011;37657;53.182;5.638;2023-04-01T20:27:31;11.25;;;7.95;;
51566;SDS011;37657;53.182;5.638;2023-04-01T20:30:07;14.68;;;6.93;;
51566;SDS011;37657;53.182;5.638;2023-04-01T20:33:21;12.90;;;7.85;;
51566;SDS011;37657;53.182;5.638;2023-04-01T20:44:59;15.95;;;8.35;;
51566;SDS011;37657;53.182;5.638;2023-04-01T20:47:45;10.05;;;6.18;;
51566;SDS011;37657;53.182;5.638;2023-04-01T20:50:45;9.35;;;5.80;;
51566;SDS011;37657;53.182;5.638;2023-04-01T20:59:09;9.98;;;6.57;;
51566;SDS011;37657;53.182;5.638;2023-04-01T21:02:15;9.70;;;6.47;;
51566;SDS011;37657;53.182;5.638;2023-04-01T21:16:05;9.68;;;6.80;;
51566;SDS011;37657;53.182;5.638;2023-04-01T21:18:48;8.15;;;6.00;;
51566;SDS011;37657;53.182;5.638;2023-04-01T21:21:44;10.20;;;6.15;;
51566;SDS011;37657;53.182;5.638;2023-04-01T21:27:27;9.77;;;5.38;;
51566;SDS011;37657;53.182;5.638;2023-04-01T21:29:58;14.50;;;5.80;;
51566;SDS011;37657;53.182;5.638;2023-04-01T21:33:13;7.20;;;6.00;;
51566;SDS011;37657;53.182;5.638;2023-04-01T21:35:21;9.98;;;7.30;;
51566;SDS011;37657;53.182;5.638;2023-04-01T21:38:11;10.27;;;6.00;;
51566;SDS011;37657;53.182;5.638;2023-04-01T21:46:49;16.25;;;6.38;;
51566;SDS011;37657;53.182;5.638;2023-04-01T21:52:56;10.10;;;5.15;;
51566;SDS011;37657;53.182;5.638;2023-04-01T21:58:57;12.45;;;7.22;;
51566;SDS011;37657;53.182;5.638;2023-04-01T22:01:39;7.05;;;5.53;;
51566;SDS011;37657;53.182;5.638;2023-04-01T22:06:59;7.30;;;6.40;;
51566;SDS011;37657;53.182;5.638;2023-04-01T22:09:43;11.95;;;6.57;;
51566;SDS011;37657;53.182;5.638;2023-04-01T22:12:29;9.38;;;5.38;;
51566;SDS011;37657;53.182;5.638;2023-04-01T22:15:09;12.13;;;6.32;;
51566;SDS011;37657;53.182;5.638;2023-04-01T22:18:37;9.32;;;6.65;;
51566;SDS011;37657;53.182;5.638;2023-04-01T22:20:56;13.20;;;7.00;;
51566;SDS011;37657;53.182;5.638;2023-04-01T22:26:27;11.13;;;5.80;;
51566;SDS011;37657;53.182;5.638;2023-04-01T22:29:07;10.90;;;6.30;;
51566;SDS011;37657;53.182;5.638;2023-04-01T22:31:44;4.65;;;4.15;;
51566;SDS011;37657;53.182;5.638;2023-04-01T22:34:32;8.80;;;6.40;;
51566;SDS011;37657;53.182;5.638;2023-04-01T22:37:28;8.90;;;5.15;;
51566;SDS011;37657;53.182;5.638;2023-04-01T22:45:19;11.68;;;4.97;;
51566;SDS011;37657;53.182;5.638;2023-04-01T22:48:20;12.55;;;5.88;;
51566;SDS011;37657;53.182;5.638;2023-04-01T22:56:15;7.82;;;4.60;;
51566;SDS011;37657;53.182;5.638;2023-04-01T23:01:54;8.60;;;4.75;;
51566;SDS011;37657;53.182;5.638;2023-04-01T23:04:26;7.82;;;5.07;;
51566;SDS011;37657;53.182;5.638;2023-04-01T23:06:57;8.02;;;4.82;;
51566;SDS011;37657;53.182;5.638;2023-04-01T23:12:12;8.95;;;4.43;;
51566;SDS011;37657;53.182;5.638;2023-04-01T23:15:14;8.85;;;5.65;;
51566;SDS011;37657;53.182;5.638;2023-04-01T23:17:42;7.65;;;4.75;;
51566;SDS011;37657;53.182;5.638;2023-04-01T23:23:26;10.40;;;7.30;;
51566;SDS011;37657;53.182;5.638;2023-04-01T23:26:04;6.30;;;4.15;;
51566;SDS011;37657;53.182;5.638;2023-04-01T23:28:41;9.50;;;5.13;;
51566;SDS011;37657;53.182;5.638;2023-04-01T23:31:27;7.32;;;4.63;;
51566;SDS011;37657;53.182;5.638;2023-04-01T23:33:56;5.10;;;3.97;;
51566;SDS011;37657;53.182;5.638;2023-04-01T23:36:24;6.03;;;4.22;;
51566;SDS011;37657;53.182;5.638;2023-04-01T23:38:50;6.88;;;3.88;;
51566;SDS011;37657;53.182;5.638;2023-04-01T23:41:21;8.27;;;5.38;;
51566;SDS011;37657;53.182;5.638;2023-04-01T23:44:04;9.55;;;4.93;;
51566;SDS011;37657;53.182;5.638;2023-04-01T23:46:34;12.02;;;6.25;;
51566;SDS011;37657;53.182;5.638;2023-04-01T23:49:02;6.97;;;4.15;;
51566;SDS011;37657;53.182;5.638;2023-04-01T23:51:29;7.45;;;4.35;;
51566;SDS011;37657;53.182;5.638;2023-04-01T23:54:51;9.70;;;5.18;;
51566;SDS011;37657;53.182;5.638;2023-04-01T23:56:54;6.80;;;5.22;;
51566;SDS011;37657;53.182;5.638;2023-04-01T23:59:31;6.57;;;4.35;;
